createdAt,value
2016-12-27T00:41:21.139Z,0
2016-12-27T00:42:08.182Z,0
2016-12-27T00:42:56.685Z,0
2016-12-27T00:43:45.866Z,0
2016-12-27T00:44:34.185Z,0
2016-12-27T00:45:22.678Z,0
2016-12-27T00:46:11.640Z,0
2016-12-27T00:47:00.051Z,0
2016-12-27T00:47:48.572Z,0
2016-12-27T00:48:37.400Z,0
2016-12-27T00:49:26.327Z,0
2016-12-27T00:50:15.528Z,0
2016-12-27T00:51:03.463Z,0
2016-12-27T00:51:51.921Z,0
2016-12-27T00:52:40.605Z,0
2016-12-27T00:53:29.817Z,0
2016-12-27T00:54:17.930Z,0
2016-12-27T00:55:06.738Z,0
2016-12-27T00:55:55.570Z,0
2016-12-27T00:56:44.338Z,0
2016-12-27T00:57:32.792Z,0
2016-12-27T00:58:21.777Z,0
2016-12-27T00:59:10.293Z,0
2016-12-27T00:59:58.902Z,0
2016-12-27T01:00:47.870Z,0
2016-12-27T01:01:35.945Z,0
2016-12-27T01:02:24.991Z,0
2016-12-27T01:03:13.434Z,0
2016-12-27T01:04:02.148Z,0
2016-12-27T01:04:50.692Z,0
2016-12-27T01:05:39.714Z,0
2016-12-27T01:06:27.985Z,0
2016-12-27T01:07:16.899Z,0
2016-12-27T01:08:05.428Z,0
2016-12-27T01:08:45.160Z,0
2016-12-27T01:09:25.651Z,0
2016-12-27T01:10:06.160Z,0
2016-12-27T01:10:46.635Z,0
2016-12-27T01:11:27.134Z,0
2016-12-27T01:12:07.574Z,0
2016-12-27T01:12:48.101Z,0
2016-12-27T01:13:28.578Z,0
2016-12-27T01:14:09.049Z,0
2016-12-27T01:14:49.507Z,0
2016-12-27T01:15:29.989Z,0
2016-12-27T01:16:10.463Z,0
2016-12-27T01:16:50.949Z,0
2016-12-27T01:17:31.473Z,0
2016-12-27T01:18:11.937Z,0
2016-12-27T01:18:52.436Z,0
2016-12-27T01:19:32.924Z,0
2016-12-27T01:20:13.360Z,0
2016-12-27T01:20:53.890Z,0
2016-12-27T01:21:34.336Z,0
2016-12-27T01:22:14.816Z,0
2016-12-27T01:22:55.277Z,0
2016-12-27T01:23:35.754Z,0
2016-12-27T01:24:16.267Z,0
2016-12-27T01:24:56.753Z,0
2016-12-27T01:25:37.261Z,0
2016-12-27T01:26:17.742Z,0
2016-12-27T01:26:58.228Z,0
2016-12-27T01:27:38.697Z,0
2016-12-27T01:28:19.168Z,0
2016-12-27T01:28:59.648Z,0
2016-12-27T01:29:40.124Z,0
2016-12-27T01:30:20.617Z,0
2016-12-27T01:31:01.152Z,0
2016-12-27T01:31:41.602Z,0
2016-12-27T01:32:22.122Z,0
2016-12-27T01:33:02.611Z,0
2016-12-27T01:33:43.105Z,0
2016-12-27T01:34:23.654Z,0
2016-12-27T01:35:04.172Z,0
2016-12-27T01:35:44.617Z,0
2016-12-27T01:36:25.126Z,0
2016-12-27T01:37:05.585Z,0
2016-12-27T01:37:46.042Z,0
2016-12-27T01:38:26.566Z,0
2016-12-27T01:39:07.037Z,0
2016-12-27T01:39:47.504Z,0
2016-12-27T01:40:27.983Z,0
2016-12-27T01:41:08.422Z,0
2016-12-27T01:41:48.910Z,0
2016-12-27T01:42:29.374Z,0
2016-12-27T01:43:09.911Z,0
2016-12-27T01:43:50.363Z,0
2016-12-27T01:44:30.821Z,0
2016-12-27T01:45:11.316Z,0
2016-12-27T01:45:51.796Z,0
2016-12-27T01:46:32.303Z,0
2016-12-27T01:47:12.762Z,0
2016-12-27T01:47:53.279Z,0
2016-12-27T01:48:33.708Z,0
2016-12-27T01:49:14.268Z,0
2016-12-27T01:49:54.675Z,0
2016-12-27T01:50:35.138Z,0
2016-12-27T01:51:15.624Z,0
2016-12-27T01:51:56.080Z,0
2016-12-27T01:52:36.568Z,0
2016-12-27T01:53:17.080Z,0
2016-12-27T01:53:57.574Z,0
2016-12-27T01:54:38.046Z,0
2016-12-27T01:55:18.527Z,0
2016-12-27T01:55:59.004Z,0
2016-12-27T01:56:39.486Z,0
2016-12-27T01:57:19.988Z,0
2016-12-27T01:58:00.462Z,0
2016-12-27T01:58:41.013Z,0
2016-12-27T01:59:21.484Z,0
2016-12-27T02:00:02.000Z,0
2016-12-27T02:00:42.489Z,0
2016-12-27T02:01:23.130Z,0
2016-12-27T02:02:03.503Z,0
2016-12-27T02:02:43.976Z,0
2016-12-27T02:03:24.455Z,0
2016-12-27T02:04:04.973Z,0
2016-12-27T02:04:45.447Z,0
2016-12-27T02:05:25.913Z,0
2016-12-27T02:06:06.477Z,0
2016-12-27T02:06:46.940Z,0
2016-12-27T02:07:27.440Z,0
2016-12-27T02:08:07.921Z,0
2016-12-27T02:08:48.377Z,0
2016-12-27T02:09:28.900Z,0
2016-12-27T02:10:10.305Z,0
2016-12-27T02:10:50.819Z,0
2016-12-27T02:11:31.274Z,0
2016-12-27T02:12:11.736Z,0
2016-12-27T02:12:52.179Z,0
2016-12-27T02:13:32.679Z,0
2016-12-27T02:14:13.169Z,0
2016-12-27T02:14:53.626Z,0
2016-12-27T02:15:34.106Z,0
2016-12-27T02:16:14.572Z,0
2016-12-27T02:16:55.049Z,0
2016-12-27T02:17:35.538Z,0
2016-12-27T02:18:16.009Z,0
2016-12-27T02:18:56.539Z,0
2016-12-27T02:19:36.936Z,0
2016-12-27T02:20:17.426Z,0
2016-12-27T02:20:57.921Z,0
2016-12-27T02:21:38.382Z,0
2016-12-27T02:22:18.827Z,0
2016-12-27T02:22:59.324Z,0
2016-12-27T02:23:39.813Z,0
2016-12-27T02:24:20.277Z,0
2016-12-27T02:25:00.771Z,0
2016-12-27T02:25:41.256Z,0
2016-12-27T02:26:21.755Z,0
2016-12-27T02:27:02.241Z,0
2016-12-27T02:27:42.752Z,0
2016-12-27T02:28:23.206Z,0
2016-12-27T02:29:03.734Z,0
2016-12-27T02:29:44.175Z,0
2016-12-27T02:30:24.646Z,0
2016-12-27T02:31:05.137Z,0
2016-12-27T02:31:45.656Z,0
2016-12-27T02:32:26.134Z,0
2016-12-27T02:33:06.626Z,0
2016-12-27T02:33:47.109Z,0
2016-12-27T02:34:27.602Z,0
2016-12-27T02:35:08.084Z,0
2016-12-27T02:35:48.693Z,0
2016-12-27T02:38:31.411Z,0
2016-12-27T02:39:19.881Z,0
2016-12-27T02:40:08.680Z,0
2016-12-27T02:40:57.651Z,0
2016-12-27T02:41:45.864Z,0
2016-12-27T02:42:34.478Z,0
2016-12-27T02:43:23.830Z,0
2016-12-27T02:44:12.683Z,0
2016-12-27T02:45:00.982Z,0
2016-12-27T02:45:49.770Z,0
2016-12-27T02:46:38.745Z,0
2016-12-27T02:47:27.006Z,0
2016-12-27T02:48:15.835Z,0
2016-12-27T02:49:04.825Z,0
2016-12-27T02:49:53.042Z,0
2016-12-27T02:50:41.853Z,0
2016-12-27T02:51:30.198Z,0
2016-12-27T02:52:19.137Z,0
2016-12-27T02:53:08.152Z,0
2016-12-27T02:53:56.817Z,0
2016-12-27T02:54:45.499Z,0
2016-12-27T02:55:33.892Z,0
2016-12-27T02:56:22.819Z,0
2016-12-27T02:57:11.427Z,0
2016-12-27T02:58:00.259Z,0
2016-12-27T02:58:49.023Z,0
2016-12-27T02:59:37.418Z,0
2016-12-27T03:00:26.358Z,0
2016-12-27T03:01:15.212Z,0
2016-12-27T03:02:03.332Z,0
2016-12-27T03:02:52.345Z,0
2016-12-27T03:03:40.927Z,0
2016-12-27T03:04:29.446Z,0
2016-12-27T03:05:18.262Z,0
2016-12-27T03:06:06.903Z,0
2016-12-27T03:06:55.639Z,0
2016-12-27T03:07:44.382Z,0
2016-12-27T03:08:32.950Z,0
2016-12-27T03:09:22.225Z,0
2016-12-27T03:10:10.576Z,0
2016-12-27T03:10:59.341Z,0
2016-12-27T03:11:48.246Z,0
2016-12-27T03:12:36.837Z,0
2016-12-27T03:13:25.730Z,0
2016-12-27T03:14:14.183Z,0
2016-12-27T03:15:03.242Z,0
2016-12-27T03:15:51.944Z,0
2016-12-27T03:16:40.369Z,0
2016-12-27T03:17:28.837Z,0
2016-12-27T03:18:17.508Z,0
2016-12-27T03:19:06.290Z,0
2016-12-27T03:19:54.827Z,0
2016-12-27T03:20:43.777Z,0
2016-12-27T03:21:32.535Z,0
2016-12-27T03:22:21.777Z,0
2016-12-27T03:23:10.004Z,0
2016-12-27T03:23:58.775Z,0
2016-12-27T03:24:47.435Z,0
2016-12-27T03:25:36.332Z,0
2016-12-27T03:26:24.764Z,0
2016-12-27T03:27:13.528Z,0
2016-12-27T03:28:02.348Z,0
2016-12-27T03:28:51.349Z,0
2016-12-27T03:29:40.205Z,0
2016-12-27T03:30:28.780Z,0
2016-12-27T03:31:17.475Z,0
2016-12-27T03:32:05.984Z,0
2016-12-27T03:32:54.717Z,0
2016-12-27T03:33:43.319Z,0
2016-12-27T03:34:31.896Z,0
2016-12-27T03:35:20.736Z,0
2016-12-27T03:36:09.658Z,0
2016-12-27T03:36:58.021Z,0
2016-12-27T03:37:46.786Z,0
2016-12-27T03:38:35.289Z,0
2016-12-27T03:39:24.741Z,0
2016-12-27T03:40:04.078Z,0
2016-12-27T03:40:44.471Z,0
2016-12-27T03:41:25.056Z,0
2016-12-27T03:42:06.416Z,0
2016-12-27T03:42:46.973Z,0
2016-12-27T03:43:27.422Z,0
2016-12-27T03:44:07.895Z,0
2016-12-27T03:44:48.337Z,0
2016-12-27T03:45:28.822Z,0
2016-12-27T03:46:09.290Z,0
2016-12-27T03:46:49.796Z,0
2016-12-27T03:47:30.255Z,0
2016-12-27T03:48:10.774Z,0
2016-12-27T03:48:51.251Z,0
2016-12-27T03:49:31.717Z,0
2016-12-27T03:50:12.224Z,0
2016-12-27T03:50:52.747Z,0
2016-12-27T03:51:33.213Z,0
2016-12-27T03:52:13.691Z,0
2016-12-27T03:52:54.096Z,0
2016-12-27T03:53:34.581Z,0
2016-12-27T03:54:15.062Z,0
2016-12-27T03:54:55.590Z,0
2016-12-27T03:55:36.037Z,0
2016-12-27T03:56:16.539Z,0
2016-12-27T03:56:56.987Z,0
2016-12-27T03:57:37.507Z,0
2016-12-27T03:58:18.006Z,0
2016-12-27T03:58:58.487Z,0
2016-12-27T03:59:38.989Z,0
2016-12-27T04:00:19.411Z,0
2016-12-27T04:00:59.902Z,0
2016-12-27T04:01:40.352Z,0
2016-12-27T04:02:20.827Z,0
2016-12-27T04:03:01.343Z,0
2016-12-27T04:03:41.884Z,0
2016-12-27T04:04:22.305Z,0
2016-12-27T04:05:02.800Z,0
2016-12-27T04:05:43.250Z,0
2016-12-27T04:06:23.682Z,0
2016-12-27T04:07:04.142Z,0
2016-12-27T04:07:44.626Z,0
2016-12-27T04:08:25.127Z,0
2016-12-27T04:09:05.631Z,0
2016-12-27T04:09:46.050Z,0
2016-12-27T04:10:26.581Z,0
2016-12-27T04:11:07.158Z,0
2016-12-27T04:11:47.672Z,0
2016-12-27T04:12:28.137Z,0
2016-12-27T04:13:08.618Z,0
2016-12-27T04:13:49.161Z,0
2016-12-27T04:14:29.601Z,0
2016-12-27T04:15:10.238Z,0
2016-12-27T04:15:50.635Z,0
2016-12-27T04:16:31.141Z,0
2016-12-27T04:17:11.608Z,0
2016-12-27T04:17:52.092Z,0
2016-12-27T04:18:32.559Z,0
2016-12-27T04:19:13.020Z,0
2016-12-27T04:19:53.527Z,0
2016-12-27T04:20:34.011Z,0
2016-12-27T04:21:14.500Z,0
2016-12-27T04:21:54.948Z,0
2016-12-27T04:22:35.459Z,0
2016-12-27T04:23:15.874Z,0
2016-12-27T04:23:56.355Z,0
2016-12-27T04:24:36.893Z,0
2016-12-27T04:25:17.364Z,0
2016-12-27T04:25:57.822Z,0
2016-12-27T04:26:38.308Z,0
2016-12-27T04:27:18.758Z,0
2016-12-27T04:27:59.267Z,0
2016-12-27T04:28:39.740Z,0
2016-12-27T04:29:20.170Z,0
2016-12-27T04:30:00.639Z,0
2016-12-27T04:30:41.103Z,0
2016-12-27T04:31:22.306Z,0
2016-12-27T04:32:02.758Z,0
2016-12-27T04:32:43.250Z,0
2016-12-27T04:33:23.714Z,0
2016-12-27T04:34:04.221Z,0
2016-12-27T04:34:44.720Z,0
2016-12-27T04:35:25.214Z,0
2016-12-27T04:36:05.660Z,0
2016-12-27T04:36:46.089Z,0
2016-12-27T04:37:26.588Z,0
2016-12-27T04:38:07.016Z,0
2016-12-27T04:38:47.508Z,0
2016-12-27T04:39:28.022Z,0
2016-12-27T04:40:08.518Z,0
2016-12-27T04:40:49.052Z,0
2016-12-27T04:41:29.578Z,0
2016-12-27T04:42:10.056Z,0
2016-12-27T04:42:50.502Z,0
2016-12-27T04:43:31.014Z,0
2016-12-27T04:44:11.498Z,0
2016-12-27T04:44:51.969Z,0
2016-12-27T04:45:32.448Z,0
2016-12-27T04:46:12.907Z,0
2016-12-27T04:46:53.426Z,0
2016-12-27T04:47:33.916Z,0
2016-12-27T04:48:14.387Z,0
2016-12-27T04:48:54.875Z,0
2016-12-27T04:49:35.344Z,0
2016-12-27T04:50:15.816Z,0
2016-12-27T04:50:56.392Z,0
2016-12-27T04:51:36.800Z,0
2016-12-27T04:52:17.264Z,0
2016-12-27T04:54:55.398Z,0
2016-12-27T04:55:43.720Z,0
2016-12-27T04:56:32.650Z,0
2016-12-27T04:57:21.270Z,0
2016-12-27T04:58:09.815Z,0
2016-12-27T04:58:58.428Z,0
2016-12-27T04:59:47.060Z,0
2016-12-27T05:00:36.111Z,0
2016-12-27T05:01:23.403Z,0
2016-12-27T05:02:12.091Z,0
2016-12-27T05:03:01.109Z,0
2016-12-27T05:03:49.588Z,0
2016-12-27T05:04:38.862Z,0
2016-12-27T05:05:27.439Z,0
2016-12-27T05:06:16.285Z,0
2016-12-27T05:07:05.163Z,0
2016-12-27T05:07:53.935Z,0
2016-12-27T05:08:42.277Z,0
2016-12-27T05:09:31.303Z,0
2016-12-27T05:10:19.819Z,0
2016-12-27T05:11:08.689Z,0
2016-12-27T05:11:57.236Z,0
2016-12-27T05:12:46.098Z,0
2016-12-27T05:13:34.472Z,0
2016-12-27T05:14:23.791Z,0
2016-12-27T05:15:12.145Z,0
2016-12-27T05:16:00.404Z,0
2016-12-27T05:16:49.098Z,0
2016-12-27T05:17:38.213Z,0
2016-12-27T05:18:26.325Z,0
2016-12-27T05:19:15.293Z,0
2016-12-27T05:20:04.121Z,0
2016-12-27T05:20:52.724Z,0
2016-12-27T05:21:41.394Z,0
2016-12-27T05:22:30.135Z,0
2016-12-27T05:23:18.484Z,0
2016-12-27T05:24:07.392Z,0
2016-12-27T05:24:55.989Z,0
2016-12-27T05:25:44.492Z,0
2016-12-27T05:26:33.545Z,0
2016-12-27T05:27:21.895Z,0
2016-12-27T05:28:10.794Z,0
2016-12-27T05:28:59.599Z,0
2016-12-27T05:29:48.474Z,0
2016-12-27T05:30:36.715Z,0
2016-12-27T05:31:25.698Z,0
2016-12-27T05:32:14.265Z,0
2016-12-27T05:33:03.375Z,0
2016-12-27T05:33:51.549Z,0
2016-12-27T05:34:40.560Z,0
2016-12-27T05:35:29.175Z,0
2016-12-27T05:36:17.752Z,0
2016-12-27T05:37:06.488Z,0
2016-12-27T05:37:54.950Z,0
2016-12-27T05:38:44.142Z,0
2016-12-27T05:39:33.282Z,0
2016-12-27T05:40:22.266Z,0
2016-12-27T05:41:10.432Z,0
2016-12-27T05:41:59.237Z,0
2016-12-27T05:42:48.222Z,0
2016-12-27T05:43:36.357Z,0
2016-12-27T05:44:25.336Z,0
2016-12-27T05:45:14.104Z,0
2016-12-27T05:46:02.359Z,0
2016-12-27T05:46:50.937Z,0
2016-12-27T05:47:39.678Z,0
2016-12-27T05:48:28.768Z,0
2016-12-27T05:49:16.999Z,0
2016-12-27T05:50:06.233Z,0
2016-12-27T05:50:54.565Z,0
2016-12-27T05:51:43.507Z,0
2016-12-27T05:52:32.196Z,0
2016-12-27T05:53:20.878Z,0
2016-12-27T05:54:09.768Z,0
2016-12-27T05:54:58.371Z,0
2016-12-27T05:55:47.149Z,0
2016-12-27T05:56:35.428Z,0
2016-12-27T05:57:24.291Z,0
2016-12-27T05:58:12.900Z,0
2016-12-27T05:59:01.510Z,0
2016-12-27T05:59:50.268Z,0
2016-12-27T06:00:38.813Z,0
2016-12-27T06:01:27.512Z,0
2016-12-27T06:02:16.273Z,0
2016-12-27T06:03:05.213Z,0
2016-12-27T06:03:53.998Z,0
2016-12-27T06:04:42.684Z,0
2016-12-27T06:05:31.298Z,0
2016-12-27T06:06:20.056Z,0
2016-12-27T06:07:08.858Z,0
2016-12-27T06:07:57.352Z,0
2016-12-27T06:08:46.193Z,0
2016-12-27T06:09:34.479Z,0
2016-12-27T06:10:23.717Z,0
2016-12-27T06:11:12.775Z,0
2016-12-27T06:12:01.220Z,0
2016-12-27T06:12:49.962Z,0
2016-12-27T06:13:38.842Z,0
2016-12-27T06:14:26.868Z,0
2016-12-27T06:15:15.752Z,0
2016-12-27T06:16:04.404Z,0
2016-12-27T06:16:53.671Z,0
2016-12-27T06:17:42.398Z,0
2016-12-27T06:18:30.980Z,0
2016-12-27T06:19:19.393Z,0
2016-12-27T06:20:08.911Z,0
2016-12-27T06:20:57.106Z,0
2016-12-27T06:21:45.886Z,0
2016-12-27T06:22:34.612Z,0
2016-12-27T06:23:22.947Z,0
2016-12-27T06:24:12.078Z,0
2016-12-27T06:25:00.786Z,0
2016-12-27T06:25:49.440Z,0
2016-12-27T06:26:38.334Z,0
2016-12-27T06:27:27.271Z,0
2016-12-27T06:28:06.867Z,0
2016-12-27T06:28:47.294Z,0
2016-12-27T06:29:27.847Z,0
2016-12-27T06:30:08.272Z,0
2016-12-27T06:30:48.711Z,0
2016-12-27T06:31:29.228Z,0
2016-12-27T06:32:09.679Z,0
2016-12-27T06:32:50.144Z,0
2016-12-27T06:33:30.686Z,0
2016-12-27T06:34:11.181Z,0
2016-12-27T06:34:51.630Z,0
2016-12-27T06:35:32.160Z,0
2016-12-27T06:36:12.597Z,0
2016-12-27T06:36:53.073Z,0
2016-12-27T06:37:33.619Z,0
2016-12-27T06:38:14.107Z,0
2016-12-27T06:38:54.610Z,0
2016-12-27T06:39:35.079Z,0
2016-12-27T06:40:15.567Z,0
2016-12-27T06:40:56.024Z,0
2016-12-27T06:41:36.473Z,0
2016-12-27T06:42:16.986Z,0
2016-12-27T06:42:57.506Z,0
2016-12-27T06:43:37.927Z,0
2016-12-27T06:44:18.494Z,0
2016-12-27T06:44:58.892Z,0
2016-12-27T06:45:40.022Z,0
2016-12-27T06:46:20.563Z,0
2016-12-27T06:47:00.968Z,0
2016-12-27T06:47:41.496Z,0
2016-12-27T06:48:21.974Z,0
2016-12-27T06:49:02.444Z,0
2016-12-27T06:49:42.938Z,0
2016-12-27T06:50:23.416Z,0
2016-12-27T06:51:03.861Z,0
2016-12-27T06:51:44.358Z,0
2016-12-27T06:52:24.871Z,0
2016-12-27T06:53:05.378Z,0
2016-12-27T06:53:45.806Z,0
2016-12-27T06:54:26.316Z,0
2016-12-27T06:55:06.828Z,0
2016-12-27T06:55:47.307Z,0
2016-12-27T06:56:27.845Z,0
2016-12-27T06:57:08.248Z,0
2016-12-27T06:57:48.719Z,0
2016-12-27T06:58:29.172Z,0
2016-12-27T06:59:09.657Z,0
2016-12-27T06:59:50.177Z,0
2016-12-27T07:00:30.661Z,0
2016-12-27T07:01:11.098Z,0
2016-12-27T07:01:51.617Z,0
2016-12-27T07:02:32.095Z,0
2016-12-27T07:03:12.634Z,0
2016-12-27T07:03:53.160Z,0
2016-12-27T07:04:33.908Z,0
2016-12-27T07:05:14.454Z,0
2016-12-27T07:05:54.822Z,0
2016-12-27T07:06:35.311Z,0
2016-12-27T07:07:15.835Z,0
2016-12-27T07:07:56.316Z,0
2016-12-27T07:08:36.865Z,0
2016-12-27T07:09:17.296Z,0
2016-12-27T07:09:57.776Z,0
2016-12-27T07:10:38.287Z,0
2016-12-27T07:11:18.734Z,0
2016-12-27T07:11:59.188Z,0
2016-12-27T07:12:39.632Z,0
2016-12-27T07:13:20.154Z,0
2016-12-27T07:14:00.677Z,0
2016-12-27T07:14:41.098Z,0
2016-12-27T07:15:21.615Z,0
2016-12-27T07:16:02.079Z,0
2016-12-27T07:16:42.541Z,0
2016-12-27T07:17:23.039Z,0
2016-12-27T07:18:03.474Z,0
2016-12-27T07:18:43.946Z,0
2016-12-27T07:19:24.432Z,0
2016-12-27T07:20:04.876Z,0
2016-12-27T07:20:45.447Z,0
2016-12-27T07:21:25.932Z,0
2016-12-27T07:22:06.385Z,0
2016-12-27T07:22:46.870Z,0
2016-12-27T07:23:27.257Z,0
2016-12-27T07:24:08.660Z,0
2016-12-27T07:24:49.116Z,0
2016-12-27T07:25:29.577Z,0
2016-12-27T07:26:10.070Z,0
2016-12-27T07:26:50.580Z,0
2016-12-27T07:27:31.060Z,0
2016-12-27T07:28:11.550Z,0
2016-12-27T07:28:52.051Z,0
2016-12-27T07:29:32.484Z,0
2016-12-27T07:30:12.984Z,0
2016-12-27T07:30:53.419Z,0
2016-12-27T07:31:33.930Z,0
2016-12-27T07:32:14.404Z,0
2016-12-27T07:32:54.917Z,0
2016-12-27T07:33:35.383Z,0
2016-12-27T07:34:15.890Z,0
2016-12-27T07:34:56.358Z,5
2016-12-27T07:35:36.817Z,5
2016-12-27T07:36:17.264Z,5
2016-12-27T07:36:57.703Z,5
2016-12-27T07:37:38.220Z,5
2016-12-27T07:38:18.713Z,5
2016-12-27T07:38:59.177Z,5
2016-12-27T07:39:39.674Z,5
2016-12-27T07:40:20.185Z,5
2016-12-27T07:41:00.662Z,5
2016-12-27T07:41:41.155Z,5
2016-12-27T07:42:21.669Z,5
2016-12-27T07:43:02.084Z,5
2016-12-27T07:43:42.581Z,5
2016-12-27T07:44:23.078Z,5
2016-12-27T07:45:03.561Z,5
2016-12-27T07:45:44.036Z,10
2016-12-27T07:46:24.498Z,10
2016-12-27T07:47:04.964Z,10
2016-12-27T07:47:45.462Z,10
2016-12-27T07:48:25.933Z,10
2016-12-27T07:49:06.455Z,10
2016-12-27T07:49:46.970Z,10
2016-12-27T07:50:27.402Z,10
2016-12-27T07:51:07.892Z,10
2016-12-27T07:51:48.327Z,10
2016-12-27T07:52:28.796Z,15
2016-12-27T07:53:09.251Z,15
2016-12-27T07:53:49.759Z,15
2016-12-27T07:54:30.261Z,15
2016-12-27T07:55:10.726Z,15
2016-12-27T07:55:51.211Z,15
2016-12-27T07:56:31.769Z,15
2016-12-27T07:57:12.180Z,15
2016-12-27T07:57:52.719Z,15
2016-12-27T07:58:33.169Z,20
2016-12-27T07:59:13.583Z,20
2016-12-27T07:59:54.080Z,20
2016-12-27T08:00:34.607Z,20
2016-12-27T08:01:15.707Z,20
2016-12-27T08:01:56.205Z,20
2016-12-27T08:02:36.724Z,20
2016-12-27T08:03:17.190Z,20
2016-12-27T08:03:57.670Z,20
2016-12-27T08:04:38.155Z,25
2016-12-27T08:05:18.593Z,25
2016-12-27T08:05:59.098Z,25
2016-12-27T08:06:39.598Z,25
2016-12-27T08:07:20.020Z,25
2016-12-27T08:08:00.501Z,25
2016-12-27T08:08:40.987Z,25
2016-12-27T08:09:21.443Z,25
2016-12-27T08:10:01.962Z,30
2016-12-27T08:10:42.428Z,30
2016-12-27T08:11:22.923Z,30
2016-12-27T08:12:03.399Z,30
2016-12-27T08:12:43.986Z,30
2016-12-27T08:13:24.488Z,35
2016-12-27T08:14:04.997Z,35
2016-12-27T08:14:45.439Z,35
2016-12-27T08:15:25.891Z,35
2016-12-27T08:16:06.362Z,35
2016-12-27T08:16:46.880Z,35
2016-12-27T08:17:27.387Z,35
2016-12-27T08:18:07.845Z,35
2016-12-27T08:18:48.333Z,35
2016-12-27T08:19:28.825Z,35
2016-12-27T08:20:09.339Z,35
2016-12-27T08:20:49.863Z,35
2016-12-27T08:21:30.294Z,40
2016-12-27T08:22:10.816Z,40
2016-12-27T08:22:51.277Z,40
2016-12-27T08:23:31.791Z,40
2016-12-27T08:24:12.311Z,40
2016-12-27T08:24:52.769Z,40
2016-12-27T08:25:33.274Z,40
2016-12-27T08:26:13.763Z,40
2016-12-27T08:26:54.254Z,40
2016-12-27T08:27:34.738Z,40
2016-12-27T08:28:15.183Z,45
2016-12-27T08:28:55.653Z,45
2016-12-27T08:29:36.232Z,45
2016-12-27T08:30:16.737Z,45
2016-12-27T08:30:57.272Z,45
2016-12-27T08:31:37.811Z,45
2016-12-27T08:32:18.242Z,45
2016-12-27T08:32:58.770Z,45
2016-12-27T08:33:40.030Z,45
2016-12-27T08:34:20.533Z,45
2016-12-27T08:35:01.001Z,40
2016-12-27T08:35:41.552Z,40
2016-12-27T08:36:21.984Z,40
2016-12-27T08:37:02.478Z,40
2016-12-27T08:37:42.919Z,40
2016-12-27T08:38:23.428Z,45
2016-12-27T08:39:03.929Z,45
2016-12-27T08:39:45.313Z,45
2016-12-27T08:40:25.814Z,45
2016-12-27T08:41:06.308Z,45
2016-12-27T08:41:46.760Z,45
2016-12-27T08:42:27.317Z,45
2016-12-27T08:43:07.757Z,45
2016-12-27T08:43:48.223Z,45
2016-12-27T08:44:28.880Z,45
2016-12-27T08:45:09.447Z,45
2016-12-27T08:45:49.897Z,45
2016-12-27T08:46:30.323Z,50
2016-12-27T08:47:10.836Z,50
2016-12-27T08:47:51.277Z,50
2016-12-27T08:48:31.802Z,50
2016-12-27T08:49:12.263Z,50
2016-12-27T08:49:52.864Z,50
2016-12-27T08:50:33.391Z,50
2016-12-27T08:51:13.891Z,50
2016-12-27T08:53:40.502Z,55
2016-12-27T08:54:29.836Z,55
2016-12-27T08:55:18.241Z,60
2016-12-27T08:56:06.355Z,60
2016-12-27T08:56:55.635Z,60
2016-12-27T08:57:44.510Z,60
2016-12-27T08:58:33.104Z,65
2016-12-27T08:59:21.945Z,65
2016-12-27T09:00:10.918Z,65
2016-12-27T09:00:59.749Z,70
2016-12-27T09:01:49.090Z,70
2016-12-27T09:02:37.598Z,70
2016-12-27T09:03:26.613Z,70
2016-12-27T09:04:15.168Z,70
2016-12-27T09:05:04.033Z,70
2016-12-27T09:05:52.569Z,70
2016-12-27T09:06:35.458Z,75
2016-12-27T09:07:15.981Z,75
2016-12-27T09:07:56.603Z,75
2016-12-27T09:08:37.076Z,75
2016-12-27T09:09:17.774Z,75
2016-12-27T09:11:54.490Z,80
2016-12-27T09:12:43.197Z,80
2016-12-27T09:13:31.629Z,85
2016-12-27T09:14:18.231Z,85
2016-12-27T09:15:05.380Z,85
2016-12-27T09:15:54.217Z,85
2016-12-27T09:16:42.475Z,85
2016-12-27T09:17:31.376Z,90
2016-12-27T09:18:11.079Z,90
2016-12-27T09:18:51.575Z,90
2016-12-27T09:19:32.001Z,90
2016-12-27T09:20:12.474Z,90
2016-12-27T09:20:52.987Z,90
2016-12-27T09:21:33.462Z,90
2016-12-27T09:22:13.931Z,90
2016-12-27T09:22:54.393Z,90
2016-12-27T09:23:34.860Z,90
2016-12-27T09:24:15.310Z,90
2016-12-27T09:24:55.781Z,95
2016-12-27T09:25:36.281Z,95
2016-12-27T09:26:16.783Z,95
2016-12-27T09:26:57.296Z,95
2016-12-27T09:27:37.918Z,95
2016-12-27T09:28:18.368Z,95
2016-12-27T09:28:58.861Z,95
2016-12-27T09:29:39.345Z,95
2016-12-27T09:30:19.838Z,95
2016-12-27T09:31:00.308Z,100
2016-12-27T09:31:40.793Z,100
2016-12-27T09:32:21.295Z,100
2016-12-27T09:33:01.772Z,100
2016-12-27T09:33:42.264Z,95
2016-12-27T09:34:22.769Z,100
2016-12-27T09:35:03.228Z,100
2016-12-27T09:35:43.728Z,100
2016-12-27T09:36:24.243Z,100
2016-12-27T09:37:04.713Z,100
2016-12-27T09:37:45.184Z,100
2016-12-27T09:38:25.660Z,100
2016-12-27T09:39:06.183Z,100
2016-12-27T09:39:46.665Z,100
2016-12-27T09:40:27.133Z,100
2016-12-27T09:41:07.651Z,100
2016-12-27T09:41:48.173Z,100
2016-12-27T09:42:28.646Z,100
2016-12-27T09:43:09.115Z,100
2016-12-27T09:43:49.649Z,100
2016-12-27T09:44:30.129Z,100
2016-12-27T09:45:10.633Z,100
2016-12-27T09:45:51.130Z,100
2016-12-27T09:46:31.644Z,100
2016-12-27T09:47:12.110Z,100
2016-12-27T09:49:46.602Z,105
2016-12-27T09:50:27.873Z,105
2016-12-27T09:51:08.343Z,105
2016-12-27T09:51:48.841Z,105
2016-12-27T09:52:29.316Z,105
2016-12-27T09:53:09.832Z,110
2016-12-27T09:53:50.310Z,115
2016-12-27T09:54:30.827Z,105
2016-12-27T09:55:11.296Z,105
2016-12-27T09:55:51.821Z,105
2016-12-27T09:56:32.289Z,105
2016-12-27T09:57:12.756Z,110
2016-12-27T09:57:53.242Z,130
2016-12-27T09:58:33.698Z,140
2016-12-27T09:59:14.203Z,130
2016-12-27T09:59:54.668Z,125
2016-12-27T10:00:35.168Z,125
2016-12-27T10:01:15.639Z,120
2016-12-27T10:01:56.104Z,115
2016-12-27T10:02:36.562Z,110
2016-12-27T10:03:17.083Z,110
2016-12-27T10:03:57.557Z,110
2016-12-27T10:04:44.814Z,110
2016-12-27T10:05:25.378Z,115
2016-12-27T10:06:05.982Z,115
2016-12-27T10:06:46.496Z,120
2016-12-27T10:07:26.957Z,120
2016-12-27T10:08:07.438Z,125
2016-12-27T10:08:47.893Z,130
2016-12-27T10:09:28.393Z,120
2016-12-27T10:10:08.865Z,110
2016-12-27T10:10:49.367Z,105
2016-12-27T10:11:29.802Z,105
2016-12-27T10:12:10.292Z,105
2016-12-27T10:12:50.755Z,100
2016-12-27T10:13:31.229Z,95
2016-12-27T10:14:11.761Z,95
2016-12-27T10:14:52.283Z,90
2016-12-27T10:15:32.710Z,95
2016-12-27T10:16:13.213Z,100
2016-12-27T10:16:53.686Z,105
2016-12-27T10:17:34.152Z,115
2016-12-27T10:18:14.667Z,130
2016-12-27T10:18:55.154Z,130
2016-12-27T10:19:35.635Z,140
2016-12-27T10:20:16.116Z,135
2016-12-27T10:22:33.222Z,125
2016-12-27T10:23:13.652Z,120
2016-12-27T10:23:54.167Z,120
2016-12-27T10:24:34.647Z,125
2016-12-27T10:25:15.116Z,125
2016-12-27T10:25:55.619Z,115
2016-12-27T10:26:36.277Z,120
2016-12-27T10:27:16.796Z,120
2016-12-27T10:27:57.264Z,110
2016-12-27T10:28:37.924Z,110
2016-12-27T10:29:18.422Z,125
2016-12-27T10:29:58.897Z,140
2016-12-27T10:30:39.398Z,140
2016-12-27T10:31:19.877Z,150
2016-12-27T10:32:00.386Z,150
2016-12-27T10:32:40.870Z,135
2016-12-27T10:33:21.340Z,145
2016-12-27T10:34:01.867Z,175
2016-12-27T10:34:42.333Z,155
2016-12-27T10:35:22.829Z,155
2016-12-27T10:36:03.310Z,170
2016-12-27T10:36:43.752Z,165
2016-12-27T10:37:24.247Z,165
2016-12-27T10:38:04.723Z,155
2016-12-27T10:38:45.260Z,135
2016-12-27T10:39:26.052Z,125
2016-12-27T10:40:06.738Z,125
2016-12-27T10:40:47.314Z,140
2016-12-27T10:41:28.041Z,160
2016-12-27T10:42:08.911Z,170
2016-12-27T10:42:49.799Z,180
2016-12-27T10:43:30.883Z,170
2016-12-27T10:44:11.516Z,160
2016-12-27T10:44:52.156Z,150
2016-12-27T10:45:32.789Z,135
2016-12-27T10:46:13.754Z,120
2016-12-27T10:46:54.615Z,120
2016-12-27T10:47:35.440Z,115
2016-12-27T10:48:16.288Z,120
2016-12-27T10:48:58.765Z,130
2016-12-27T10:49:39.677Z,135
2016-12-27T10:50:20.458Z,135
2016-12-27T10:51:01.041Z,135
2016-12-27T10:51:41.763Z,140
2016-12-27T10:52:22.482Z,140
2016-12-27T10:53:03.046Z,150
2016-12-27T10:53:43.588Z,165
2016-12-27T10:54:24.352Z,150
2016-12-27T10:55:05.180Z,145
2016-12-27T10:55:46.095Z,140
2016-12-27T10:56:26.924Z,135
2016-12-27T10:57:07.520Z,140
2016-12-27T10:57:48.080Z,155
2016-12-27T10:58:29.063Z,165
2016-12-27T10:59:09.611Z,175
2016-12-27T10:59:50.328Z,185
2016-12-27T11:00:31.022Z,190
2016-12-27T11:01:11.801Z,210
2016-12-27T11:01:52.479Z,215
2016-12-27T11:02:33.672Z,185
2016-12-27T11:03:14.840Z,160
2016-12-27T11:03:56.091Z,165
2016-12-27T11:04:36.941Z,180
2016-12-27T11:05:18.784Z,170
2016-12-27T11:06:00.505Z,185
2016-12-27T11:06:41.443Z,215
2016-12-27T11:07:22.179Z,240
2016-12-27T11:08:02.857Z,245
2016-12-27T11:08:43.411Z,235
2016-12-27T11:09:25.899Z,235
2016-12-27T11:10:06.922Z,235
2016-12-27T11:10:47.857Z,230
2016-12-27T11:11:28.668Z,225
2016-12-27T11:12:11.369Z,205
2016-12-27T11:12:52.474Z,190
2016-12-27T11:13:33.167Z,165
2016-12-27T11:14:13.931Z,155